Time;durP1;ratioP1;P1;durP2;ratioP2;P2;SDS_P1;SDS_P2;PMS_P1;PMS_P2;Temp;Humidity;BMP_temperature;BMP_pressure;BME280_temperature;BME280_humidity;BME280_pressure;Samples;Min_cycle;Max_cycle;Signal;HPM_P1;HPM_P2
2023/02/27 00:00:29;;;;;;;7.95;3.50;;;;;;;;;;5062949;28;20033;-86
2023/02/27 00:02:57;;;;;;;5.35;3.03;;;;;;;;;;5057053;28;20568;-87
2023/02/27 00:05:25;;;;;;;3.67;2.97;;;;;;;;;;5071355;28;20052;-88
2023/02/27 00:07:52;;;;;;;8.40;3.65;;;;;;;;;;5041369;28;20051;-88
2023/02/27 00:10:19;;;;;;;5.50;3.47;;;;;;;;;;5075759;28;20091;-88
2023/02/27 00:12:47;;;;;;;4.82;2.78;;;;;;;;;;5066112;28;20049;-88
2023/02/27 00:15:16;;;;;;;6.28;3.42;;;;;;;;;;5066651;28;20056;-88
2023/02/27 00:17:44;;;;;;;6.57;2.80;;;;;;;;;;5073958;28;20056;-88
2023/02/27 00:20:12;;;;;;;7.20;3.30;;;;;;;;;;5065282;28;20053;-88
2023/02/27 00:22:40;;;;;;;5.18;2.85;;;;;;;;;;5066594;28;20045;-88
2023/02/27 00:25:08;;;;;;;4.10;3.20;;;;;;;;;;5074201;28;20032;-88
2023/02/27 00:27:35;;;;;;;3.30;2.83;;;;;;;;;;5041400;28;20118;-88
2023/02/27 00:30:04;;;;;;;2.65;2.30;;;;;;;;;;5074213;28;20039;-88
2023/02/27 00:32:31;;;;;;;6.32;2.78;;;;;;;;;;5046391;28;20527;-88
2023/02/27 00:34:59;;;;;;;4.55;2.30;;;;;;;;;;5069124;28;20053;-88
2023/02/27 00:37:26;;;;;;;3.35;2.50;;;;;;;;;;5052801;28;20103;-89
2023/02/27 00:39:53;;;;;;;3.92;2.42;;;;;;;;;;5043281;28;20055;-88
2023/02/27 00:42:21;;;;;;;4.15;3.08;;;;;;;;;;5045287;28;20124;-88
2023/02/27 00:44:48;;;;;;;4.28;2.50;;;;;;;;;;5038970;28;20056;-87
2023/02/27 00:47:15;;;;;;;5.10;2.63;;;;;;;;;;5056805;28;20045;-89
2023/02/27 00:49:42;;;;;;;3.88;2.70;;;;;;;;;;5050281;28;20044;-89
2023/02/27 00:52:09;;;;;;;6.75;2.50;;;;;;;;;;5067330;28;20128;-89
2023/02/27 00:54:37;;;;;;;4.15;2.70;;;;;;;;;;5066587;28;20059;-89
2023/02/27 00:57:05;;;;;;;4.32;2.47;;;;;;;;;;5050521;28;20045;-88
2023/02/27 00:59:32;;;;;;;5.72;2.53;;;;;;;;;;5050479;28;20139;-88
2023/02/27 01:01:59;;;;;;;5.35;2.85;;;;;;;;;;5066623;28;20049;-88
2023/02/27 01:04:27;;;;;;;3.63;2.30;;;;;;;;;;5043972;28;20081;-89
2023/02/27 01:06:54;;;;;;;4.25;2.25;;;;;;;;;;5061037;28;20056;-89
2023/02/27 01:09:23;;;;;;;4.90;2.47;;;;;;;;;;5044737;28;20144;-89
2023/02/27 01:11:51;;;;;;;4.90;2.00;;;;;;;;;;5063148;28;20069;-88
2023/02/27 01:14:19;;;;;;;3.42;2.28;;;;;;;;;;5045117;28;20148;-89
2023/02/27 01:16:46;;;;;;;2.72;2.05;;;;;;;;;;5063607;28;20601;-88
2023/02/27 01:19:13;;;;;;;3.17;2.17;;;;;;;;;;5062119;28;20052;-89
2023/02/27 01:21:40;;;;;;;5.90;2.33;;;;;;;;;;5061966;28;20048;-89
2023/02/27 01:24:09;;;;;;;2.30;2.10;;;;;;;;;;5045146;28;20440;-89
2023/02/27 01:26:36;;;;;;;3.00;2.28;;;;;;;;;;5041771;28;20051;-89
2023/02/27 01:29:04;;;;;;;6.43;2.33;;;;;;;;;;5043062;28;20053;-90
2023/02/27 01:31:32;;;;;;;2.97;2.13;;;;;;;;;;5047260;28;20067;-89
2023/02/27 01:34:00;;;;;;;4.70;2.10;;;;;;;;;;5051033;28;20049;-89
2023/02/27 01:36:27;;;;;;;7.95;2.17;;;;;;;;;;5071971;28;20056;-89
2023/02/27 01:38:54;;;;;;;4.72;2.10;;;;;;;;;;5050782;28;20140;-89
2023/02/27 01:41:24;;;;;;;3.47;1.77;;;;;;;;;;5071159;28;20437;-89
2023/02/27 01:44:02;;;;;;;3.08;2.08;;;;;;;;;;5052081;28;20088;-89
2023/02/27 01:46:30;;;;;;;3.28;1.95;;;;;;;;;;5065898;28;20071;-89
2023/02/27 01:49:05;;;;;;;4.47;2.00;;;;;;;;;;5049271;28;20080;-89
2023/02/27 01:51:34;;;;;;;3.80;1.83;;;;;;;;;;5046928;28;20053;-89
2023/02/27 01:54:03;;;;;;;5.43;2.33;;;;;;;;;;5054248;28;20037;-89
2023/02/27 01:56:31;;;;;;;3.88;2.05;;;;;;;;;;5060424;28;20060;-87
2023/02/27 01:59:02;;;;;;;2.60;1.98;;;;;;;;;;5055178;28;20129;-89
2023/02/27 02:01:30;;;;;;;3.70;2.03;;;;;;;;;;5041411;28;20049;-89
2023/02/27 02:04:04;;;;;;;2.20;2.00;;;;;;;;;;5041345;28;20064;-90
2023/02/27 02:06:33;;;;;;;3.53;2.38;;;;;;;;;;5058849;28;20073;-89
2023/02/27 02:09:02;;;;;;;7.75;2.50;;;;;;;;;;5041760;28;20417;-89
2023/02/27 02:11:29;;;;;;;4.93;2.38;;;;;;;;;;5058658;28;20059;-89
2023/02/27 02:13:58;;;;;;;5.38;1.95;;;;;;;;;;5040690;28;20049;-89
2023/02/27 02:16:44;;;;;;;2.42;2.15;;;;;;;;;;5041131;28;20394;-89
2023/02/27 02:19:18;;;;;;;4.68;1.95;;;;;;;;;;5039341;28;20049;-89
2023/02/27 02:21:51;;;;;;;5.60;2.28;;;;;;;;;;5037511;28;20060;-89
2023/02/27 02:24:34;;;;;;;3.78;2.08;;;;;;;;;;5037562;28;20412;-90
2023/02/27 02:27:17;;;;;;;2.25;2.03;;;;;;;;;;5039228;28;20053;-89
2023/02/27 02:30:03;;;;;;;3.75;2.10;;;;;;;;;;5041721;28;20140;-89
2023/02/27 02:32:43;;;;;;;4.47;2.13;;;;;;;;;;5041130;28;20047;-88
2023/02/27 02:35:29;;;;;;;2.85;2.10;;;;;;;;;;5041253;28;20053;-89
2023/02/27 02:38:05;;;;;;;2.17;2.03;;;;;;;;;;5064904;28;20057;-89
2023/02/27 02:40:36;;;;;;;3.15;2.05;;;;;;;;;;5059551;28;20516;-89
2023/02/27 02:43:09;;;;;;;2.80;2.00;;;;;;;;;;5066479;28;20056;-89
2023/02/27 02:45:55;;;;;;;3.72;2.60;;;;;;;;;;5053821;28;20045;-89
2023/02/27 02:48:31;;;;;;;4.88;2.35;;;;;;;;;;5048305;28;20459;-89
2023/02/27 02:51:09;;;;;;;9.85;2.30;;;;;;;;;;5050582;28;20057;-89
2023/02/27 02:53:48;;;;;;;3.30;2.20;;;;;;;;;;5059400;28;20060;-89
2023/02/27 02:56:23;;;;;;;3.72;2.33;;;;;;;;;;5052920;28;20505;-90
2023/02/27 02:58:58;;;;;;;4.93;2.20;;;;;;;;;;5042455;28;20041;-89
2023/02/27 03:01:35;;;;;;;4.85;2.35;;;;;;;;;;5058250;28;20132;-89
2023/02/27 03:04:06;;;;;;;3.95;2.45;;;;;;;;;;5058299;28;20063;-89
2023/02/27 03:06:37;;;;;;;5.15;2.65;;;;;;;;;;5054374;28;20044;-89
2023/02/27 03:09:09;;;;;;;3.88;2.40;;;;;;;;;;5065510;28;20040;-89
2023/02/27 03:11:38;;;;;;;19.52;8.68;;;;;;;;;;5072008;28;20500;-90
2023/02/27 03:14:13;;;;;;;10.00;5.32;;;;;;;;;;5073379;28;20564;-89
2023/02/27 03:16:42;;;;;;;6.70;3.10;;;;;;;;;;5056943;28;20056;-89
2023/02/27 03:19:18;;;;;;;6.00;2.92;;;;;;;;;;5063050;28;20049;-89
2023/02/27 03:21:48;;;;;;;3.95;2.65;;;;;;;;;;5075450;28;20079;-89
2023/02/27 03:24:27;;;;;;;3.95;2.00;;;;;;;;;;5042190;28;20099;-88
2023/02/27 03:26:58;;;;;;;5.30;2.42;;;;;;;;;;5055022;28;20052;-89
2023/02/27 03:29:28;;;;;;;6.63;2.67;;;;;;;;;;5058033;28;20139;-89
2023/02/27 03:32:01;;;;;;;4.47;3.42;;;;;;;;;;5044984;28;20080;-89
2023/02/27 03:34:32;;;;;;;6.72;4.93;;;;;;;;;;5059372;28;20060;-89
2023/02/27 03:37:06;;;;;;;9.80;4.20;;;;;;;;;;5045523;28;20056;-89
2023/02/27 03:39:44;;;;;;;4.80;2.92;;;;;;;;;;5047577;28;20444;-89
2023/02/27 03:42:17;;;;;;;8.68;2.97;;;;;;;;;;5047103;28;20501;-89
2023/02/27 03:44:44;;;;;;;4.72;2.42;;;;;;;;;;5057150;28;20041;-89
2023/02/27 03:47:11;;;;;;;5.78;2.50;;;;;;;;;;5049171;28;20051;-89
2023/02/27 03:49:39;;;;;;;3.70;2.50;;;;;;;;;;5051569;28;20049;-89
2023/02/27 03:52:10;;;;;;;2.55;2.00;;;;;;;;;;5060444;28;20041;-89
2023/02/27 03:54:39;;;;;;;5.38;2.13;;;;;;;;;;5062746;28;20120;-87
2023/02/27 03:57:08;;;;;;;5.07;2.72;;;;;;;;;;5043859;28;20037;-89
2023/02/27 03:59:37;;;;;;;3.80;2.65;;;;;;;;;;5057931;28;20139;-89
2023/02/27 04:02:04;;;;;;;4.18;2.40;;;;;;;;;;5045497;28;20033;-88
2023/02/27 04:04:32;;;;;;;4.30;3.00;;;;;;;;;;5057359;28;20112;-88
2023/02/27 04:07:22;;;;;;;2.75;2.30;;;;;;;;;;5042820;28;20140;-89
2023/02/27 04:10:01;;;;;;;4.07;2.53;;;;;;;;;;5055232;28;20049;-89
2023/02/27 04:12:41;;;;;;;9.38;5.57;;;;;;;;;;5069973;28;20048;-89
2023/02/27 04:15:11;;;;;;;;;;;;;;;;;;5055648;28;20068;-88
2023/02/27 04:17:47;;;;;;;7.05;4.35;;;;;;;;;;5057057;28;19920;-89
2023/02/27 04:20:18;;;;;;;5.35;3.72;;;;;;;;;;5044056;28;20112;-89
2023/02/27 04:22:47;;;;;;;3.67;2.80;;;;;;;;;;5065180;28;20079;-89
2023/02/27 04:25:24;;;;;;;3.50;2.42;;;;;;;;;;5059890;28;20052;-89
2023/02/27 04:27:51;;;;;;;4.18;2.47;;;;;;;;;;5058231;28;20053;-89
2023/02/27 04:30:34;;;;;;;6.13;2.55;;;;;;;;;;5057409;28;20055;-89
2023/02/27 04:33:20;;;;;;;3.72;2.55;;;;;;;;;;5045333;28;20045;-88
2023/02/27 04:35:56;;;;;;;3.92;2.90;;;;;;;;;;5038820;28;20059;-89
2023/02/27 04:38:36;;;;;;;3.63;2.53;;;;;;;;;;5036412;28;20051;-88
2023/02/27 04:41:19;;;;;;;4.03;2.42;;;;;;;;;;5039600;28;20060;-89
2023/02/27 04:43:47;;;;;;;7.93;2.92;;;;;;;;;;5039209;28;20052;-89
2023/02/27 04:46:16;;;;;;;4.57;2.70;;;;;;;;;;5058082;28;20051;-89
2023/02/27 04:48:50;;;;;;;5.50;3.50;;;;;;;;;;5058516;28;20064;-90
2023/02/27 04:51:20;;;;;;;3.58;3.08;;;;;;;;;;5040043;28;20049;-89
2023/02/27 04:53:50;;;;;;;4.15;2.67;;;;;;;;;;5056210;28;20469;-89
2023/02/27 04:56:21;;;;;;;3.88;2.58;;;;;;;;;;5057082;28;20049;-88
2023/02/27 04:58:51;;;;;;;4.93;2.85;;;;;;;;;;5056030;28;20124;-89
2023/02/27 05:01:22;;;;;;;4.78;2.67;;;;;;;;;;5039079;28;20413;-89
2023/02/27 05:03:51;;;;;;;4.88;3.13;;;;;;;;;;5038551;28;20400;-89
2023/02/27 05:06:21;;;;;;;6.00;3.10;;;;;;;;;;5038944;28;20059;-89
2023/02/27 05:09:07;;;;;;;3.13;2.65;;;;;;;;;;5038677;28;20045;-89
2023/02/27 05:11:39;;;;;;;6.72;2.45;;;;;;;;;;5054960;28;20049;-89
2023/02/27 05:14:12;;;;;;;3.55;2.58;;;;;;;;;;5038083;28;20053;-88
2023/02/27 05:16:42;;;;;;;3.58;2.60;;;;;;;;;;5038220;28;20049;-88
2023/02/27 05:19:09;;;;;;;5.57;3.10;;;;;;;;;;5038061;28;20049;-90
2023/02/27 05:21:41;;;;;;;4.10;2.53;;;;;;;;;;5038342;28;20055;-88
2023/02/27 05:24:18;;;;;;;6.10;2.63;;;;;;;;;;5038663;28;20292;-89
2023/02/27 05:27:01;;;;;;;5.32;2.70;;;;;;;;;;5056069;28;20056;-89
2023/02/27 05:29:28;;;;;;;3.53;2.72;;;;;;;;;;5038585;28;20052;-88
2023/02/27 05:32:10;;;;;;;8.57;3.33;;;;;;;;;;5038970;28;20053;-89
2023/02/27 05:34:43;;;;;;;4.38;3.10;;;;;;;;;;5056698;28;20045;-89
2023/02/27 05:37:13;;;;;;;4.65;2.70;;;;;;;;;;5059077;28;20052;-88
2023/02/27 05:39:41;;;;;;;7.32;2.80;;;;;;;;;;5056761;28;20104;-89
2023/02/27 05:42:13;;;;;;;8.18;3.40;;;;;;;;;;5039445;28;20398;-88
2023/02/27 05:44:43;;;;;;;5.30;3.00;;;;;;;;;;5039523;28;20051;-89
2023/02/27 05:47:15;;;;;;;53.92;21.80;;;;;;;;;;5039359;28;20052;-89
2023/02/27 05:49:45;;;;;;;14.15;5.30;;;;;;;;;;5049188;28;20049;-89
2023/02/27 05:52:14;;;;;;;6.97;3.00;;;;;;;;;;5076945;28;20063;-87
2023/02/27 05:55:02;;;;;;;6.05;2.83;;;;;;;;;;5049600;28;20049;-89
2023/02/27 05:57:36;;;;;;;3.83;2.40;;;;;;;;;;5011944;28;20106;-89
2023/02/27 06:00:10;;;;;;;7.47;4.07;;;;;;;;;;5041079;28;20140;-89
2023/02/27 06:02:37;;;;;;;14.13;6.35;;;;;;;;;;5056222;28;20088;-89
2023/02/27 06:05:05;;;;;;;6.82;3.60;;;;;;;;;;5038675;28;20452;-89
2023/02/27 06:07:33;;;;;;;10.75;4.20;;;;;;;;;;5055746;28;20497;-89
2023/02/27 06:10:00;;;;;;;13.93;5.53;;;;;;;;;;5056005;28;20044;-88
2023/02/27 06:12:27;;;;;;;13.65;5.30;;;;;;;;;;5038235;28;20053;-89
2023/02/27 06:14:55;;;;;;;11.30;5.10;;;;;;;;;;5038562;28;20053;-89
2023/02/27 06:17:22;;;;;;;9.52;3.85;;;;;;;;;;5038817;28;20045;-89
2023/02/27 06:19:49;;;;;;;6.90;4.15;;;;;;;;;;5038506;28;20044;-88
2023/02/27 06:22:17;;;;;;;8.27;3.95;;;;;;;;;;5039006;28;20081;-89
2023/02/27 06:24:44;;;;;;;9.88;4.00;;;;;;;;;;5055952;28;20041;-89
2023/02/27 06:27:11;;;;;;;5.57;3.28;;;;;;;;;;5038693;28;20464;-89
2023/02/27 06:29:39;;;;;;;14.90;5.35;;;;;;;;;;5038638;28;20056;-88
2023/02/27 06:32:06;;;;;;;15.65;4.93;;;;;;;;;;5039139;28;20075;-89
2023/02/27 06:34:33;;;;;;;9.02;4.00;;;;;;;;;;5039743;28;20095;-89
2023/02/27 06:37:02;;;;;;;11.45;4.60;;;;;;;;;;5041048;28;20094;-89
2023/02/27 06:39:30;;;;;;;14.25;5.97;;;;;;;;;;5040536;28;20454;-89
2023/02/27 06:41:57;;;;;;;6.35;3.20;;;;;;;;;;5038871;28;20044;-89
2023/02/27 06:44:25;;;;;;;3.85;2.42;;;;;;;;;;5038137;28;20049;-89
2023/02/27 06:46:52;;;;;;;9.10;2.83;;;;;;;;;;5055889;28;20045;-89
2023/02/27 06:49:19;;;;;;;7.88;3.40;;;;;;;;;;5038640;28;20504;-89
2023/02/27 06:51:47;;;;;;;5.57;2.67;;;;;;;;;;5038176;28;20052;-89
2023/02/27 06:54:14;;;;;;;7.75;2.25;;;;;;;;;;5038769;28;20466;-88
2023/02/27 06:56:41;;;;;;;7.68;3.78;;;;;;;;;;5038037;28;20106;-89
2023/02/27 06:59:09;;;;;;;6.32;2.97;;;;;;;;;;5039076;28;20095;-89
2023/02/27 07:01:36;;;;;;;6.07;3.40;;;;;;;;;;5063380;28;20075;-89
2023/02/27 07:04:04;;;;;;;7.03;2.80;;;;;;;;;;5048016;28;20437;-88
2023/02/27 07:06:31;;;;;;;4.88;2.45;;;;;;;;;;5047959;28;20055;-90
2023/02/27 07:09:18;;;;;;;10.85;2.83;;;;;;;;;;5051532;28;20049;-87
2023/02/27 07:11:46;;;;;;;8.70;2.55;;;;;;;;;;5047480;28;20063;-89
2023/02/27 07:14:15;;;;;;;6.32;2.20;;;;;;;;;;5050642;28;20061;-89
2023/02/27 07:16:43;;;;;;;5.63;2.55;;;;;;;;;;5051141;28;20574;-89
2023/02/27 07:19:10;;;;;;;6.38;2.22;;;;;;;;;;5051566;28;20112;-89
2023/02/27 07:21:37;;;;;;;4.85;2.63;;;;;;;;;;5068413;28;20098;-88
2023/02/27 07:24:05;;;;;;;4.75;2.50;;;;;;;;;;5050936;28;20051;-88
2023/02/27 07:26:32;;;;;;;5.85;2.60;;;;;;;;;;5051070;28;20045;-89
2023/02/27 07:28:59;;;;;;;4.95;2.35;;;;;;;;;;5050849;28;20112;-89
2023/02/27 07:31:27;;;;;;;7.32;3.85;;;;;;;;;;5050520;28;20139;-89
2023/02/27 07:33:55;;;;;;;6.10;3.72;;;;;;;;;;5052610;28;20056;-88
2023/02/27 07:36:22;;;;;;;5.43;3.30;;;;;;;;;;5052340;28;20045;-89
2023/02/27 07:38:54;;;;;;;6.43;4.38;;;;;;;;;;5067914;28;20045;-89
2023/02/27 07:41:22;;;;;;;5.97;3.97;;;;;;;;;;5049653;28;20067;-89
2023/02/27 07:43:57;;;;;;;11.05;4.72;;;;;;;;;;5051094;28;20044;-88
2023/02/27 07:46:27;;;;;;;10.63;4.32;;;;;;;;;;5069659;28;20580;-88
2023/02/27 07:48:55;;;;;;;10.25;4.40;;;;;;;;;;5059884;28;20056;-88
2023/02/27 07:51:23;;;;;;;7.65;4.07;;;;;;;;;;5063500;28;20044;-88
2023/02/27 07:53:51;;;;;;;17.20;4.32;;;;;;;;;;5070361;28;20045;-89
2023/02/27 07:56:18;;;;;;;10.15;3.75;;;;;;;;;;5069202;28;20080;-88
2023/02/27 07:58:45;;;;;;;7.75;3.78;;;;;;;;;;5053511;28;20117;-88
2023/02/27 08:01:12;;;;;;;9.20;3.75;;;;;;;;;;5052251;28;20106;-88
2023/02/27 08:03:40;;;;;;;7.38;3.75;;;;;;;;;;5052578;28;20099;-88
2023/02/27 08:06:08;;;;;;;9.10;3.53;;;;;;;;;;5069659;28;20086;-89
2023/02/27 08:08:35;;;;;;;9.45;3.20;;;;;;;;;;5050959;28;20071;-88
2023/02/27 08:11:02;;;;;;;7.25;2.92;;;;;;;;;;5068224;28;20053;-88
2023/02/27 08:13:31;;;;;;;8.98;3.25;;;;;;;;;;5051973;28;20052;-88
2023/02/27 08:16:18;;;;;;;9.32;3.58;;;;;;;;;;5053675;28;20053;-88
2023/02/27 08:18:46;;;;;;;6.68;3.00;;;;;;;;;;5049939;28;20063;-88
2023/02/27 08:21:14;;;;;;;9.63;3.10;;;;;;;;;;5065133;28;20053;-87
2023/02/27 08:23:42;;;;;;;15.88;3.47;;;;;;;;;;5028816;28;20045;-88
2023/02/27 08:26:09;;;;;;;16.92;3.78;;;;;;;;;;5045766;28;20113;-88
2023/02/27 08:28:36;;;;;;;18.52;3.85;;;;;;;;;;5028956;28;20080;-88
2023/02/27 08:31:05;;;;;;;13.10;3.70;;;;;;;;;;5028505;28;20136;-87
2023/02/27 08:33:34;;;;;;;17.30;3.63;;;;;;;;;;5016586;28;20041;-88
2023/02/27 08:36:01;;;;;;;14.65;3.45;;;;;;;;;;5029753;28;20054;-87
2023/02/27 08:38:30;;;;;;;19.60;3.65;;;;;;;;;;5028176;28;20210;-88
2023/02/27 08:40:58;;;;;;;12.65;3.25;;;;;;;;;;5045169;28;20502;-87
2023/02/27 08:43:25;;;;;;;12.13;4.20;;;;;;;;;;5028230;28;20417;-88
2023/02/27 08:45:52;;;;;;;19.45;5.97;;;;;;;;;;5027981;28;20049;-88
2023/02/27 08:48:20;;;;;;;16.15;6.00;;;;;;;;;;5027222;28;20042;-87
2023/02/27 08:50:47;;;;;;;23.25;4.65;;;;;;;;;;5045074;28;20053;-86
2023/02/27 08:53:15;;;;;;;20.27;4.95;;;;;;;;;;5027184;28;20071;-87
2023/02/27 08:55:42;;;;;;;20.08;8.65;;;;;;;;;;5027408;28;20056;-87
2023/02/27 08:58:10;;;;;;;16.30;5.13;;;;;;;;;;5025771;28;20058;-87
2023/02/27 09:00:37;;;;;;;13.02;4.32;;;;;;;;;;5026108;28;20107;-86
2023/02/27 09:03:05;;;;;;;13.50;3.80;;;;;;;;;;5043304;28;20045;-84
2023/02/27 09:05:34;;;;;;;11.27;2.95;;;;;;;;;;5043337;28;20133;-85
2023/02/27 09:08:02;;;;;;;10.73;3.15;;;;;;;;;;5043802;28;20055;-85
2023/02/27 09:10:29;;;;;;;9.07;2.55;;;;;;;;;;5044235;28;20060;-86
2023/02/27 09:12:57;;;;;;;4.97;2.55;;;;;;;;;;5027074;28;20049;-86
2023/02/27 09:15:24;;;;;;;8.50;2.47;;;;;;;;;;5019283;28;20141;-86
2023/02/27 09:17:55;;;;;;;10.48;2.60;;;;;;;;;;5026633;28;20045;-86
2023/02/27 09:20:22;;;;;;;5.47;1.98;;;;;;;;;;5026338;28;20053;-86
2023/02/27 09:22:49;;;;;;;16.73;2.72;;;;;;;;;;5028136;28;20046;-87
2023/02/27 09:25:17;;;;;;;6.72;2.22;;;;;;;;;;5027744;28;20053;-87
2023/02/27 09:27:44;;;;;;;4.05;1.48;;;;;;;;;;5028581;28;20121;-87
2023/02/27 09:30:11;;;;;;;5.10;1.83;;;;;;;;;;5046500;28;20060;-86
2023/02/27 09:32:39;;;;;;;6.45;1.70;;;;;;;;;;5044621;28;20046;-86
2023/02/27 09:35:08;;;;;;;2.72;1.80;;;;;;;;;;5028322;28;20057;-86
2023/02/27 09:37:35;;;;;;;2.30;1.45;;;;;;;;;;5027999;28;20068;-86
2023/02/27 09:40:05;;;;;;;2.72;1.48;;;;;;;;;;5028737;28;20042;-86
2023/02/27 09:42:35;;;;;;;2.00;1.70;;;;;;;;;;5045594;28;20148;-85
2023/02/27 09:45:05;;;;;;;14.27;2.15;;;;;;;;;;5050799;28;20045;-86
2023/02/27 09:47:44;;;;;;;3.22;1.70;;;;;;;;;;5039991;28;20060;-86
2023/02/27 09:50:24;;;;;;;2.15;1.60;;;;;;;;;;5038236;28;20049;-85
2023/02/27 09:52:51;;;;;;;1.10;1.05;;;;;;;;;;5032588;28;20080;-86
2023/02/27 09:55:20;;;;;;;33.88;2.67;;;;;;;;;;5046417;28;20046;-86
2023/02/27 09:57:56;;;;;;;5.13;1.20;;;;;;;;;;5045640;28;20069;-86
2023/02/27 10:00:29;;;;;;;1.88;1.10;;;;;;;;;;5044319;28;20041;-87
2023/02/27 10:03:09;;;;;;;9.10;1.15;;;;;;;;;;5027394;28;20501;-86
2023/02/27 10:05:47;;;;;;;4.13;0.93;;;;;;;;;;5025418;28;20052;-87
2023/02/27 10:08:34;;;;;;;1.08;0.98;;;;;;;;;;5024067;28;20099;-87
2023/02/27 10:11:25;;;;;;;20.50;2.97;;;;;;;;;;5043225;28;20041;-86
2023/02/27 10:14:01;;;;;;;1.70;0.95;;;;;;;;;;5010302;28;20049;-85
2023/02/27 10:16:31;;;;;;;2.00;1.00;;;;;;;;;;5026473;28;20050;-85
2023/02/27 10:19:04;;;;;;;2.85;0.80;;;;;;;;;;5041091;28;20058;-86
2023/02/27 10:21:37;;;;;;;7.47;0.88;;;;;;;;;;5024796;28;20103;-86
2023/02/27 10:24:12;;;;;;;1.70;0.50;;;;;;;;;;5027119;28;20458;-87
2023/02/27 10:26:41;;;;;;;2.28;0.68;;;;;;;;;;5026518;28;20446;-85
2023/02/27 10:29:28;;;;;;;1.42;0.77;;;;;;;;;;5027361;28;20150;-86
2023/02/27 10:32:14;;;;;;;0.77;0.60;;;;;;;;;;5026999;28;20049;-84
2023/02/27 10:34:43;;;;;;;4.30;1.20;;;;;;;;;;5027823;28;20049;-84
2023/02/27 10:37:14;;;;;;;1.13;0.90;;;;;;;;;;5023445;28;20453;-85
2023/02/27 10:39:49;;;;;;;3.42;0.80;;;;;;;;;;5024798;28;20045;-85
2023/02/27 10:42:17;;;;;;;1.35;0.70;;;;;;;;;;5027207;28;20117;-84
2023/02/27 10:44:45;;;;;;;6.72;1.67;;;;;;;;;;5024257;28;20073;-84
2023/02/27 10:47:15;;;;;;;3.58;0.85;;;;;;;;;;5024309;28;20041;-85
2023/02/27 10:49:43;;;;;;;1.48;0.82;;;;;;;;;;5030983;28;20045;-85
2023/02/27 10:52:12;;;;;;;0.82;0.70;;;;;;;;;;5028330;28;20072;-84
2023/02/27 10:54:40;;;;;;;3.33;0.90;;;;;;;;;;5027679;28;20080;-84
2023/02/27 10:57:18;;;;;;;5.50;1.27;;;;;;;;;;5029841;28;20521;-84
2023/02/27 11:00:08;;;;;;;6.53;1.58;;;;;;;;;;5028479;28;20132;-84
2023/02/27 11:02:37;;;;;;;0.93;0.60;;;;;;;;;;5028564;28;20073;-84
2023/02/27 11:05:07;;;;;;;1.52;0.75;;;;;;;;;;5045817;28;20049;-83
2023/02/27 11:07:36;;;;;;;1.25;0.80;;;;;;;;;;5046786;28;20057;-84
2023/02/27 11:10:15;;;;;;;1.15;0.52;;;;;;;;;;5046909;28;20073;-83
2023/02/27 11:13:00;;;;;;;2.13;0.68;;;;;;;;;;5046880;28;20109;-83
2023/02/27 11:15:30;;;;;;;0.73;0.70;;;;;;;;;;5046322;28;20068;-83
2023/02/27 11:18:19;;;;;;;2.58;0.60;;;;;;;;;;5046334;28;20468;-83
2023/02/27 11:20:49;;;;;;;1.17;0.60;;;;;;;;;;5029095;28;20076;-82
2023/02/27 11:23:19;;;;;;;2.58;0.60;;;;;;;;;;5028434;28;20052;-82
2023/02/27 11:25:47;;;;;;;3.70;0.70;;;;;;;;;;5028336;28;20498;-82
2023/02/27 11:28:21;;;;;;;1.77;0.85;;;;;;;;;;5046581;28;20124;-83
2023/02/27 11:30:48;;;;;;;;;;;;;;;;;;5046630;28;20060;-84
2023/02/27 11:33:19;;;;;;;9.15;1.92;;;;;;;;;;5045947;28;19975;-83
2023/02/27 11:35:50;;;;;;;4.45;0.70;;;;;;;;;;5048208;28;20136;-83
2023/02/27 11:38:25;;;;;;;7.40;1.33;;;;;;;;;;5031380;28;20514;-83
2023/02/27 11:40:57;;;;;;;4.75;0.85;;;;;;;;;;5035647;28;20049;-82
2023/02/27 11:43:29;;;;;;;2.38;0.68;;;;;;;;;;5056641;28;20101;-81
2023/02/27 11:45:56;;;;;;;2.60;0.98;;;;;;;;;;5053966;28;20048;-84
2023/02/27 11:48:47;;;;;;;1.55;0.70;;;;;;;;;;5032649;28;20049;-83
2023/02/27 11:51:26;;;;;;;3.65;0.95;;;;;;;;;;5031159;28;20104;-84
2023/02/27 11:54:14;;;;;;;1.80;0.73;;;;;;;;;;5031869;28;20501;-83
2023/02/27 11:56:41;;;;;;;1.60;0.88;;;;;;;;;;5030568;28;20128;-84
2023/02/27 11:59:11;;;;;;;3.22;1.20;;;;;;;;;;5048154;28;20045;-85
2023/02/27 12:01:44;;;;;;;1.73;1.63;;;;;;;;;;5050699;28;20137;-85
2023/02/27 12:04:24;;;;;;;44.97;23.65;;;;;;;;;;5046208;28;20049;-84
2023/02/27 12:06:55;;;;;;;2.33;2.10;;;;;;;;;;5028366;28;20410;-83
2023/02/27 12:09:29;;;;;;;2.90;1.05;;;;;;;;;;5046240;28;20049;-85
2023/02/27 12:11:56;;;;;;;9.65;1.40;;;;;;;;;;5028462;28;20486;-82
2023/02/27 12:14:40;;;;;;;4.68;0.98;;;;;;;;;;5046686;28;20145;-84
2023/02/27 12:17:21;;;;;;;2.42;0.98;;;;;;;;;;5047850;28;20053;-85
2023/02/27 12:20:09;;;;;;;1.90;0.88;;;;;;;;;;5047031;28;20049;-84
2023/02/27 12:22:40;;;;;;;4.72;1.98;;;;;;;;;;5029364;28;20046;-83
2023/02/27 12:25:32;;;;;;;4.15;1.40;;;;;;;;;;5046850;28;20117;-84
2023/02/27 12:28:18;;;;;;;11.57;1.83;;;;;;;;;;5047115;28;20104;-84
2023/02/27 12:30:55;;;;;;;2.55;1.38;;;;;;;;;;5045057;28;20046;-85
2023/02/27 12:33:38;;;;;;;1.40;1.30;;;;;;;;;;5027153;28;20049;-85
2023/02/27 12:36:09;;;;;;;2.20;1.70;;;;;;;;;;5045103;28;20049;-85
2023/02/27 12:38:37;;;;;;;3.83;1.65;;;;;;;;;;5044923;28;20053;-83
2023/02/27 12:41:22;;;;;;;4.60;1.27;;;;;;;;;;5046321;28;20057;-82
2023/02/27 12:44:03;;;;;;;1.00;1.00;;;;;;;;;;5046608;28;20489;-83
2023/02/27 12:46:44;;;;;;;2.40;1.30;;;;;;;;;;5028937;28;20045;-83
2023/02/27 12:49:21;;;;;;;1.90;1.35;;;;;;;;;;5028894;28;20056;-83
2023/02/27 12:51:49;;;;;;;9.00;1.27;;;;;;;;;;5046598;28;20068;-83
2023/02/27 12:54:19;;;;;;;5.68;1.48;;;;;;;;;;5044468;28;20045;-82
2023/02/27 12:56:47;;;;;;;6.13;1.42;;;;;;;;;;5019834;28;20064;-84
2023/02/27 12:59:29;;;;;;;15.23;2.20;;;;;;;;;;5019491;28;20049;-83
2023/02/27 13:02:02;;;;;;;11.65;2.88;;;;;;;;;;5037143;28;20046;-85
2023/02/27 13:04:29;;;;;;;2.67;1.38;;;;;;;;;;5037237;28;20061;-85
2023/02/27 13:07:08;;;;;;;3.38;1.23;;;;;;;;;;5036419;28;20057;-82
2023/02/27 13:09:43;;;;;;;16.80;2.22;;;;;;;;;;5017388;28;20056;-83
2023/02/27 13:12:26;;;;;;;9.93;1.65;;;;;;;;;;5019035;28;20512;-83
2023/02/27 13:14:56;;;;;;;5.40;1.33;;;;;;;;;;5020436;28;20537;-83
2023/02/27 13:17:31;;;;;;;4.63;1.10;;;;;;;;;;5036132;28;20050;-84
2023/02/27 13:20:16;;;;;;;2.17;1.98;;;;;;;;;;5019392;28;20128;-84
2023/02/27 13:22:43;;;;;;;5.50;0.90;;;;;;;;;;5018608;28;20049;-84
2023/02/27 13:25:13;;;;;;;7.57;3.90;;;;;;;;;;5036193;28;20060;-84
2023/02/27 13:27:46;;;;;;;2.15;1.23;;;;;;;;;;5018341;28;20045;-84
2023/02/27 13:30:16;;;;;;;4.32;1.92;;;;;;;;;;5019418;28;20472;-83
2023/02/27 13:32:55;;;;;;;4.28;1.25;;;;;;;;;;5036701;28;20084;-84
2023/02/27 13:35:34;;;;;;;6.32;1.92;;;;;;;;;;5027819;28;20049;-85
2023/02/27 13:38:04;;;;;;;2.15;1.00;;;;;;;;;;5054763;28;20049;-84
2023/02/27 13:40:31;;;;;;;22.23;3.17;;;;;;;;;;5028686;28;20129;-85
2023/02/27 13:43:00;;;;;;;1.10;0.90;;;;;;;;;;5019643;28;20053;-84
2023/02/27 13:45:46;;;;;;;5.18;1.25;;;;;;;;;;5018691;28;20128;-84
2023/02/27 13:48:32;;;;;;;4.75;1.73;;;;;;;;;;5017991;28;20092;-84
2023/02/27 13:51:00;;;;;;;4.90;1.27;;;;;;;;;;5018133;28;20136;-85
2023/02/27 13:53:28;;;;;;;7.20;1.00;;;;;;;;;;5018269;28;20080;-84
2023/02/27 13:56:18;;;;;;;6.55;3.45;;;;;;;;;;5018570;28;20144;-84
2023/02/27 13:58:46;;;;;;;11.35;7.28;;;;;;;;;;5018388;28;20060;-84
2023/02/27 14:01:26;;;;;;;12.23;7.43;;;;;;;;;;5035327;28;20046;-84
2023/02/27 14:03:55;;;;;;;4.00;2.53;;;;;;;;;;5035743;28;20057;-85
2023/02/27 14:06:23;;;;;;;19.77;7.38;;;;;;;;;;5035771;28;20413;-84
2023/02/27 14:08:52;;;;;;;9.45;3.72;;;;;;;;;;5018747;28;20052;-83
2023/02/27 14:11:38;;;;;;;4.07;2.40;;;;;;;;;;5019884;28;20056;-84
2023/02/27 14:14:07;;;;;;;19.45;9.43;;;;;;;;;;5018840;28;20049;-83
2023/02/27 14:16:40;;;;;;;2.08;1.05;;;;;;;;;;5018516;28;20077;-83
2023/02/27 14:19:10;;;;;;;3.83;1.88;;;;;;;;;;5018191;28;20136;-84
2023/02/27 14:21:56;;;;;;;2.38;1.80;;;;;;;;;;5019021;28;20524;-83
2023/02/27 14:24:32;;;;;;;2.35;1.55;;;;;;;;;;5022273;28;20052;-84
2023/02/27 14:27:00;;;;;;;2.90;1.30;;;;;;;;;;5022136;28;20053;-84
2023/02/27 14:29:30;;;;;;;5.05;1.70;;;;;;;;;;5023583;28;20045;-82
2023/02/27 14:32:00;;;;;;;9.13;3.15;;;;;;;;;;5030701;28;20103;-83
2023/02/27 14:34:28;;;;;;;36.03;18.42;;;;;;;;;;5029442;28;20486;-84
2023/02/27 14:36:58;;;;;;;12.10;6.10;;;;;;;;;;5049237;28;20058;-84
2023/02/27 14:39:27;;;;;;;20.45;9.30;;;;;;;;;;5033772;28;20056;-84
2023/02/27 14:42:14;;;;;;;28.23;6.57;;;;;;;;;;5032058;28;20076;-84
2023/02/27 14:44:42;;;;;;;15.93;9.23;;;;;;;;;;5033885;28;20104;-83
2023/02/27 14:47:33;;;;;;;6.28;4.68;;;;;;;;;;5049165;28;20054;-84
2023/02/27 14:50:02;;;;;;;15.88;9.27;;;;;;;;;;5036481;28;20100;-84
2023/02/27 14:52:31;;;;;;;17.67;10.60;;;;;;;;;;5031500;28;20501;-85
2023/02/27 14:55:17;;;;;;;7.00;2.17;;;;;;;;;;5040000;28;20417;-84
2023/02/27 14:57:53;;;;;;;23.83;5.13;;;;;;;;;;5037760;28;20049;-84
2023/02/27 15:00:28;;;;;;;4.72;2.30;;;;;;;;;;5038550;28;20049;-84
2023/02/27 15:02:57;;;;;;;12.65;5.80;;;;;;;;;;5037346;28;20052;-84
2023/02/27 15:05:28;;;;;;;54.30;33.67;;;;;;;;;;5037138;28;20085;-84
2023/02/27 15:07:58;;;;;;;75.13;43.78;;;;;;;;;;5019852;28;20433;-85